createdAt,value
2019-05-22T00:02:29.622Z,93.00
2019-05-22T00:06:42.172Z,93.10
2019-05-22T00:10:53.947Z,93.20
2019-05-22T00:15:03.689Z,93.30
2019-05-22T00:19:13.887Z,93.20
2019-05-22T00:23:23.367Z,93.30
2019-05-22T00:27:32.455Z,93.30
2019-05-22T00:31:41.427Z,93.30
2019-05-22T00:35:51.087Z,93.40
2019-05-22T00:40:00.507Z,93.40
2019-05-22T00:44:12.955Z,93.30
2019-05-22T00:48:25.389Z,93.30
2019-05-22T00:52:46.301Z,93.30
2019-05-22T00:57:13.703Z,93.30
2019-05-22T01:01:39.898Z,93.60
2019-05-22T01:05:49.313Z,93.10
2019-05-22T01:09:59.238Z,93.00
2019-05-22T01:14:09.250Z,93.10
2019-05-22T01:18:18.747Z,92.90
2019-05-22T01:22:28.606Z,92.70
2019-05-22T01:26:39.123Z,92.70
2019-05-22T01:31:05.763Z,92.60
2019-05-22T01:35:16.365Z,92.50
2019-05-22T01:39:44.734Z,92.40
2019-05-22T01:43:55.585Z,92.60
2019-05-22T01:48:10.986Z,92.80
2019-05-22T01:52:21.305Z,92.70
2019-05-22T01:56:31.563Z,92.70
2019-05-22T02:00:41.966Z,92.70
2019-05-22T02:04:51.339Z,92.60
2019-05-22T02:09:19.470Z,92.30
2019-05-22T02:13:38.156Z,92.50
2019-05-22T02:17:48.533Z,92.30
2019-05-22T02:21:59.233Z,92.40
2019-05-22T02:26:10.362Z,92.30
2019-05-22T02:30:22.619Z,92.50
2019-05-22T02:34:31.603Z,92.50
2019-05-22T02:38:41.774Z,92.50
2019-05-22T02:42:52.148Z,92.50
2019-05-22T02:47:18.172Z,92.30
2019-05-22T02:51:14.439Z,92.20
2019-05-22T02:55:23.534Z,92.10
2019-05-22T02:59:32.590Z,92.20
2019-05-22T03:03:43.979Z,92.20
2019-05-22T03:07:53.620Z,92.20
2019-05-22T03:12:10.955Z,92.00
2019-05-22T03:16:20.170Z,91.80
2019-05-22T03:20:32.069Z,91.60
2019-05-22T03:24:41.150Z,91.50
2019-05-22T03:28:50.110Z,91.30
2019-05-22T03:33:01.054Z,91.10
2019-05-22T03:37:10.440Z,91.00
2019-05-22T03:41:20.793Z,90.80
2019-05-22T03:45:31.132Z,91.00
2019-05-22T03:49:41.486Z,90.60
2019-05-22T03:53:51.257Z,90.30
2019-05-22T03:58:00.322Z,90.20
2019-05-22T04:02:10.393Z,90.10
2019-05-22T04:06:22.779Z,90.10
2019-05-22T04:10:41.003Z,90.10
2019-05-22T04:14:48.439Z,90.10
2019-05-22T04:18:58.090Z,90.30
2019-05-22T04:23:07.136Z,90.00
2019-05-22T04:27:17.619Z,90.10
2019-05-22T04:31:49.051Z,90.00
2019-05-22T04:36:00.314Z,89.90
2019-05-22T04:40:47.405Z,90.00
2019-05-22T04:45:12.156Z,90.00
2019-05-22T04:49:21.103Z,89.90
2019-05-22T04:53:30.179Z,89.70
2019-05-22T04:57:39.178Z,89.40
2019-05-22T05:01:48.132Z,88.80
2019-05-22T05:05:58.215Z,87.80
2019-05-22T05:10:07.889Z,87.00
2019-05-22T05:14:16.847Z,86.30
2019-05-22T05:18:26.532Z,85.70
2019-05-22T05:22:43.683Z,84.70
2019-05-22T05:26:53.738Z,83.90
2019-05-22T05:31:02.929Z,82.60
2019-05-22T05:35:12.700Z,82.10
2019-05-22T05:40:08.131Z,80.20
2019-05-22T05:44:17.071Z,79.30
2019-05-22T05:48:27.993Z,79.20
2019-05-22T05:52:37.966Z,78.60
2019-05-22T05:56:51.008Z,78.30
2019-05-22T06:01:12.920Z,78.20
2019-05-22T06:05:23.356Z,78.10
2019-05-22T06:09:32.435Z,77.70
2019-05-22T06:13:41.361Z,77.10
2019-05-22T06:18:38.365Z,76.50
2019-05-22T06:23:32.531Z,75.80
2019-05-22T06:27:55.181Z,75.90
2019-05-22T06:33:01.374Z,75.50
2019-05-22T06:37:16.806Z,74.10
2019-05-22T06:41:31.495Z,73.20
2019-05-22T06:45:40.370Z,72.60
2019-05-22T06:49:52.810Z,71.90
2019-05-22T06:54:02.032Z,72.10
2019-05-22T06:58:11.305Z,71.10
2019-05-22T07:02:21.168Z,70.20
2019-05-22T07:06:30.158Z,69.20
2019-05-22T07:10:39.738Z,67.80
2019-05-22T07:15:20.617Z,67.30
2019-05-22T07:19:30.099Z,66.90
2019-05-22T07:23:39.259Z,66.40
2019-05-22T07:27:48.823Z,65.00
2019-05-22T07:32:02.351Z,64.40
2019-05-22T07:36:16.655Z,63.30
2019-05-22T07:40:23.770Z,62.50
2019-05-22T07:44:33.188Z,62.70
2019-05-22T07:48:42.528Z,62.10
2019-05-22T07:52:52.330Z,60.20
2019-05-22T07:57:01.611Z,59.50
2019-05-22T08:01:10.613Z,60.00
2019-05-22T08:05:22.851Z,60.00
2019-05-22T08:09:33.013Z,60.50
2019-05-22T08:13:43.396Z,59.10
2019-05-22T08:17:52.974Z,58.60
2019-05-22T08:22:07.304Z,58.00
2019-05-22T08:26:14.667Z,58.30
2019-05-22T08:30:23.669Z,59.60
2019-05-22T08:34:33.515Z,58.60
2019-05-22T08:38:44.862Z,58.30
2019-05-22T08:42:54.103Z,57.40
2019-05-22T08:47:03.583Z,57.20
2019-05-22T08:51:13.505Z,56.70
2019-05-22T08:55:22.558Z,56.20
2019-05-22T08:59:31.989Z,54.60
2019-05-22T09:03:41.352Z,53.50
2019-05-22T09:07:50.258Z,54.00
2019-05-22T09:11:59.160Z,54.50
2019-05-22T09:16:08.928Z,54.00
2019-05-22T09:20:20.508Z,53.20
2019-05-22T09:24:30.648Z,53.00
2019-05-22T09:28:39.629Z,53.70
2019-05-22T09:32:49.190Z,53.70
2019-05-22T09:36:58.138Z,52.90
2019-05-22T09:41:07.635Z,52.90
2019-05-22T09:45:17.136Z,51.70
2019-05-22T09:49:26.518Z,52.10
2019-05-22T09:53:36.195Z,51.00
2019-05-22T09:57:45.271Z,52.40
2019-05-22T10:01:54.586Z,50.80
2019-05-22T10:06:04.683Z,50.30
2019-05-22T10:10:15.120Z,50.90
2019-05-22T10:14:24.483Z,51.70
2019-05-22T10:18:34.592Z,51.20
2019-05-22T10:22:43.571Z,49.60
2019-05-22T10:26:52.946Z,50.40
2019-05-22T10:31:02.879Z,49.30
2019-05-22T10:35:14.188Z,50.40
2019-05-22T10:39:24.825Z,49.90
2019-05-22T10:43:34.308Z,48.90
2019-05-22T10:47:43.974Z,47.50
2019-05-22T10:51:53.387Z,47.90
2019-05-22T10:56:02.876Z,46.40
2019-05-22T11:00:12.930Z,46.00
2019-05-22T11:04:23.423Z,46.60
2019-05-22T11:08:34.476Z,47.10
2019-05-22T11:12:43.475Z,45.70
2019-05-22T11:16:52.758Z,45.20
2019-05-22T11:21:02.669Z,44.70
2019-05-22T11:25:14.714Z,44.00
2019-05-22T11:29:23.672Z,43.70
2019-05-22T11:33:34.336Z,44.60
2019-05-22T11:37:44.115Z,46.00
2019-05-22T11:41:53.093Z,43.50
2019-05-22T11:46:02.171Z,42.70
2019-05-22T11:50:13.011Z,41.90
2019-05-22T11:54:22.473Z,40.40
2019-05-22T11:58:31.476Z,41.60
2019-05-22T12:02:40.837Z,42.70
2019-05-22T12:06:53.558Z,42.50
2019-05-22T12:11:01.815Z,41.40
2019-05-22T12:15:11.625Z,41.50
2019-05-22T12:19:20.652Z,41.00
2019-05-22T12:23:30.166Z,39.90
2019-05-22T12:27:39.144Z,39.00
2019-05-22T12:31:49.181Z,38.70
2019-05-22T12:35:58.533Z,38.30
2019-05-22T12:40:09.754Z,39.10
2019-05-22T12:44:19.631Z,40.20
2019-05-22T12:48:29.076Z,41.30
2019-05-22T12:52:38.710Z,39.20
2019-05-22T12:56:48.290Z,38.50
2019-05-22T13:00:58.331Z,41.30
2019-05-22T13:05:08.331Z,40.40
2019-05-22T13:09:17.577Z,39.70
2019-05-22T13:13:26.830Z,40.20
2019-05-22T13:17:36.775Z,39.80
2019-05-22T13:21:48.023Z,37.20
2019-05-22T13:25:58.053Z,38.30
2019-05-22T13:30:08.867Z,38.00
2019-05-22T13:34:18.720Z,38.50
2019-05-22T13:38:28.162Z,38.50
2019-05-22T13:42:37.306Z,37.30
2019-05-22T13:46:46.567Z,35.40
2019-05-22T13:50:57.896Z,36.80
2019-05-22T13:55:09.143Z,35.90
2019-05-22T13:59:18.777Z,35.30
2019-05-22T14:03:28.290Z,37.10
2019-05-22T14:07:37.383Z,37.50
2019-05-22T14:11:46.638Z,38.40
2019-05-22T14:15:57.333Z,37.90
2019-05-22T14:20:08.008Z,37.80
2019-05-22T14:24:16.967Z,38.90
2019-05-22T14:28:27.322Z,40.30
2019-05-22T14:32:37.759Z,39.90
2019-05-22T14:36:47.500Z,40.50
2019-05-22T14:40:57.174Z,40.70
2019-05-22T14:45:06.759Z,40.60
2019-05-22T14:49:16.043Z,41.60
2019-05-22T14:53:26.234Z,42.60
2019-05-22T14:57:35.542Z,42.80
2019-05-22T15:01:44.436Z,43.60
2019-05-22T15:05:54.199Z,44.00
2019-05-22T15:10:03.190Z,43.40
2019-05-22T15:14:12.075Z,41.60
2019-05-22T15:18:21.032Z,39.30
2019-05-22T15:22:29.979Z,40.00
2019-05-22T15:26:39.153Z,40.90
2019-05-22T15:30:48.342Z,41.10
2019-05-22T15:34:57.334Z,41.40
2019-05-22T15:39:08.659Z,41.70
2019-05-22T15:43:17.839Z,41.90
2019-05-22T15:47:27.402Z,41.70
2019-05-22T15:51:37.202Z,42.50
2019-05-22T15:55:48.401Z,41.70
2019-05-22T15:59:58.079Z,41.60
2019-05-22T16:04:10.850Z,41.70
2019-05-22T16:08:19.805Z,41.60
2019-05-22T16:12:29.472Z,42.00
2019-05-22T16:16:40.105Z,41.70
2019-05-22T16:20:49.686Z,39.80
2019-05-22T16:25:00.590Z,40.30
2019-05-22T16:29:09.545Z,39.50
2019-05-22T16:33:19.131Z,39.70
2019-05-22T16:37:28.910Z,40.20
2019-05-22T16:41:38.832Z,40.20
2019-05-22T16:45:49.007Z,39.10
2019-05-22T16:50:00.131Z,39.60
2019-05-22T16:54:09.448Z,38.30
2019-05-22T16:58:19.885Z,38.10
2019-05-22T17:02:30.011Z,38.40
2019-05-22T17:06:40.475Z,36.90
2019-05-22T17:10:51.277Z,35.60
2019-05-22T17:15:01.391Z,35.00
2019-05-22T17:19:25.857Z,32.00
2019-05-22T17:23:21.977Z,32.80
2019-05-22T17:27:31.836Z,34.00
2019-05-22T17:31:41.129Z,33.90
2019-05-22T17:35:51.442Z,33.90
2019-05-22T17:40:00.706Z,34.50
2019-05-22T17:44:10.230Z,34.70
2019-05-22T17:48:20.183Z,34.20
2019-05-22T17:52:29.231Z,35.80
2019-05-22T17:56:38.522Z,38.10
2019-05-22T18:00:48.960Z,40.10
2019-05-22T18:04:58.072Z,42.00
2019-05-22T18:09:08.827Z,43.80
2019-05-22T18:13:19.158Z,45.10
2019-05-22T18:17:28.424Z,46.20
2019-05-22T18:21:38.392Z,46.90
2019-05-22T18:25:47.363Z,47.50
2019-05-22T18:29:56.320Z,48.10
2019-05-22T18:34:05.555Z,49.10
2019-05-22T18:38:14.453Z,50.00
2019-05-22T18:42:24.018Z,51.00
2019-05-22T18:46:32.899Z,52.00
2019-05-22T18:50:42.238Z,52.80
2019-05-22T18:54:51.117Z,53.60
2019-05-22T18:59:00.259Z,55.00
2019-05-22T19:03:09.138Z,56.20
2019-05-22T19:07:18.282Z,57.00
2019-05-22T19:11:27.306Z,57.80
2019-05-22T19:15:36.540Z,58.80
2019-05-22T19:19:45.423Z,59.80
2019-05-22T19:23:54.378Z,61.00
2019-05-22T19:28:04.043Z,62.20
2019-05-22T19:32:12.999Z,64.50
2019-05-22T19:36:21.923Z,64.80
2019-05-22T19:40:30.810Z,66.10
2019-05-22T19:44:39.770Z,67.60
2019-05-22T19:48:49.171Z,68.50
2019-05-22T19:53:15.885Z,69.30
2019-05-22T19:57:09.912Z,70.00
2019-05-22T20:01:18.798Z,70.90
2019-05-22T20:05:27.861Z,71.80
2019-05-22T20:09:38.543Z,72.70
2019-05-22T20:13:48.050Z,73.30
2019-05-22T20:17:57.910Z,73.80
2019-05-22T20:22:08.302Z,74.20
2019-05-22T20:26:18.232Z,74.70
2019-05-22T20:30:27.754Z,75.30
2019-05-22T20:34:37.154Z,75.80
2019-05-22T20:38:46.182Z,76.30
2019-05-22T20:42:55.719Z,77.10
2019-05-22T20:47:06.452Z,77.00
2019-05-22T20:51:17.662Z,77.00
2019-05-22T20:55:26.746Z,77.10
2019-05-22T20:59:35.997Z,76.70
2019-05-22T21:03:45.047Z,77.40
2019-05-22T21:07:56.943Z,77.60
2019-05-22T21:12:08.699Z,78.10
2019-05-22T21:16:18.493Z,78.80
2019-05-22T21:20:30.302Z,79.10
2019-05-22T21:24:39.870Z,79.80
2019-05-22T21:28:49.512Z,80.00
2019-05-22T21:32:59.066Z,80.50
2019-05-22T21:37:08.105Z,80.60
2019-05-22T21:41:19.506Z,80.80
2019-05-22T21:45:28.822Z,80.70
2019-05-22T21:49:38.917Z,81.00
2019-05-22T21:53:48.415Z,81.10
2019-05-22T21:57:57.387Z,81.20
2019-05-22T22:02:18.501Z,81.40
2019-05-22T22:06:28.026Z,81.60
2019-05-22T22:10:37.275Z,82.00
2019-05-22T22:14:47.891Z,82.40
2019-05-22T22:18:57.428Z,82.50
2019-05-22T22:23:06.427Z,82.80
2019-05-22T22:27:16.416Z,82.90
2019-05-22T22:31:28.086Z,83.10
2019-05-22T22:35:37.436Z,83.20
2019-05-22T22:39:52.209Z,83.10
2019-05-22T22:44:03.366Z,84.30
2019-05-22T22:48:16.397Z,84.40
2019-05-22T22:52:26.034Z,84.80
2019-05-22T22:56:35.150Z,84.80
2019-05-22T23:00:45.872Z,85.20
2019-05-22T23:04:55.622Z,85.20
2019-05-22T23:19:31.918Z,86.00
2019-05-22T23:23:40.754Z,87.30
2019-05-22T23:27:50.757Z,87.50
2019-05-22T23:32:00.603Z,87.60
2019-05-22T23:36:11.156Z,87.70
2019-05-22T23:40:25.513Z,87.80
2019-05-22T23:44:37.400Z,88.30
2019-05-22T23:48:47.202Z,88.80
2019-05-22T23:52:56.794Z,88.80
2019-05-22T23:57:06.137Z,88.80
